Portada
METAR-TAF:

METAR-TAF

Aeropuertos :

Pécs, Hungría

latitud: 46-06N, longitud: 018-14E, altitud: 201 m

Observación

El informe se hizo hace 4 horas y 30 minutos, a las 17:45 UTC
Viento 5 kt del oeste-suroeste
Temperatura 16°C
Humedad 72%
Presión 1016 hPa
Visibilidad 10 km o más
sin nubes por debajo de 1500 m y sin presencia de cumulonimbus.

METAR: LHPP 231745Z 25005KT CAVOK 16/11 Q1016

Hora: 00:15 (22:15 UTC)

Pronóstico

El informe se hizo hace 8 horas y 0 minutos, a las 14:15 UTC
Pronóstico válido del 23 a las 15 UTC al 23 a las 24 UTC
Viento 9 kt del oeste-suroeste
Visibilidad 10 km o más
sin nubes por debajo de 1500 m y sin presencia de cumulonimbus.

TAF: LHPP 231415Z 2315/2324 24009KT CAVOK

Observaciones y pronósticos meteorológicos de más de 4000 aeropuertos (mensajes METAR y TAF).

Los puntos amarillos y rojos representan las estaciones disponibles.

Ponga el ratón en el punto deseado para ver el nombre de la estación.

Haga clic para ver las observaciones y los pronósticos meteorológicos.

Para cambiar el mapa : haga clic en los botones verdes con una cruz de color negro para hacer un zoom, en el botón verde con un guión para alejar o en las flechas verdes para mapas adyacentes.


METAR-TAF: